BTR weather

Baton Rouge Metropolitan Airport
Baton Rouge, Louisiana, United States

Public forecast

Using degrees Fahrenheit for public forecast. Weather courtesy of forecast.io.

Current aviation weather report (METAR) for Baton Rouge Metropolitan Airport

Retrieved 2019/10/18 09:53 UTC (10 minutes ago):

KBTR 180953Z AUTO 07005KT 10SM CLR 14/10 A2989 RMK AO2 SLP119 T01440100

Aviation forecast (TAF) for Baton Rouge Metropolitan Airport

Retrieved 2019/10/18 06:22 UTC (4 hours ago):

TAF KBTR 180520Z 1806/1906 07007KT P6SM BKN150 FM181700 04008KT P6SM BKN200 FM190500 35006KT P6SM SCT200